Portada
METAR-TAF:

METAR-TAF

Aeroports :

Aeroport Internacional de Fujairah

Fujairah, Emirats Àrabs Units

latitud: 25-06N, longitud: 056-20E, altitud: 28 m

Observació

L'informe es va fer fa 12 minuts, a les 21:00 UTC
Vent 11 kt del Oest/Nord-Oest
Temperatura 26°C
Humitat 61%
Pressió 1013 hPa
Visibilitat: 8000 m

METAR: OMFJ 042100Z 29011KT 8000 NSC 26/18 Q1012 A2990

Hora: 01:12 (21:12 UTC)

Pronòstic

L'informe es va fer fa 4 hores i 12 minuts, a les 17:00 UTC
Pronòstic vàlid del 04 a les 18 UTC al 05 a les 24 UTC
Vent 5 kt del Oest
Visibilitat: 8000 m
Probabilitat 30%
l' 04 a les 21 UTC al 05 a les 02 UTC
Vent 3 kt amb direcció variable
Visibilitat: 5000 m
calitja
Evolucionant progressivament
l' 05 a les 05 UTC al 05 a les 07 UTC
Vent 7 kt del Est
Evolucionant progressivament
l' 05 a les 14 UTC al 05 a les 16 UTC
Vent 2 kt amb direcció variable

TAF: OMFJ 041700Z 0418/0524 28005KT 8000 NSC PROB30 0421/0502 VRB03KT 5000 HZ BECMG 0505/0507 09007KT BECMG 0514/0516 VRB02KT

Observacions i pronòstics meteorològics de més de 4000 aeroports (METAR i TAF).

Les estacions disponibles són els punts grocs i vermells al mapa.

Posi el ratolí al punt desitjat per veure el nom de l'estació.

Feu clic per veure les observacions i els pronòstics meteorològics.

Per canviar el mapa: feu clic els botons verds amb una creu de color negre per apropar; al botó verd amb un guió per allunyar la imatge; o en les fletxes verdes per a mapes adjacents.


METAR-TAF: